sensor_id;sensor_type;location;lat;lon;timestamp;P1;durP1;ratioP1;P2;durP2;ratioP2
64351;SDS011;50680;52.626;-8.668;2023-06-22T00:01:20;9.18;;;2.22;;
64351;SDS011;50680;52.626;-8.668;2023-06-22T00:03:49;4.45;;;1.67;;
64351;SDS011;50680;52.626;-8.668;2023-06-22T00:06:16;6.03;;;3.15;;
64351;SDS011;50680;52.626;-8.668;2023-06-22T00:08:43;11.80;;;3.90;;
64351;SDS011;50680;52.626;-8.668;2023-06-22T00:11:10;4.32;;;2.47;;
64351;SDS011;50680;52.626;-8.668;2023-06-22T00:13:37;4.22;;;2.65;;
64351;SDS011;50680;52.626;-8.668;2023-06-22T00:16:05;7.43;;;3.78;;
64351;SDS011;50680;52.626;-8.668;2023-06-22T00:18:32;7.90;;;3.85;;
64351;SDS011;50680;52.626;-8.668;2023-06-22T00:20:59;5.82;;;3.70;;
64351;SDS011;50680;52.626;-8.668;2023-06-22T00:23:26;10.40;;;3.88;;
64351;SDS011;50680;52.626;-8.668;2023-06-22T00:25:53;8.65;;;5.22;;
64351;SDS011;50680;52.626;-8.668;2023-06-22T00:28:20;5.22;;;3.50;;
64351;SDS011;50680;52.626;-8.668;2023-06-22T00:30:48;6.43;;;3.97;;
64351;SDS011;50680;52.626;-8.668;2023-06-22T00:33:16;9.55;;;4.55;;
64351;SDS011;50680;52.626;-8.668;2023-06-22T00:35:43;13.63;;;4.82;;
64351;SDS011;50680;52.626;-8.668;2023-06-22T00:38:10;10.30;;;4.20;;
64351;SDS011;50680;52.626;-8.668;2023-06-22T00:40:38;10.80;;;4.65;;
64351;SDS011;50680;52.626;-8.668;2023-06-22T00:43:05;15.55;;;4.53;;
64351;SDS011;50680;52.626;-8.668;2023-06-22T00:45:32;12.35;;;5.30;;
64351;SDS011;50680;52.626;-8.668;2023-06-22T00:47:59;9.38;;;3.83;;
64351;SDS011;50680;52.626;-8.668;2023-06-22T00:50:28;6.72;;;4.57;;
64351;SDS011;50680;52.626;-8.668;2023-06-22T00:53:01;8.85;;;4.90;;
64351;SDS011;50680;52.626;-8.668;2023-06-22T00:55:36;11.90;;;3.65;;
64351;SDS011;50680;52.626;-8.668;2023-06-22T00:58:10;12.55;;;4.15;;
64351;SDS011;50680;52.626;-8.668;2023-06-22T01:00:38;7.88;;;4.63;;
64351;SDS011;50680;52.626;-8.668;2023-06-22T01:03:06;6.70;;;2.33;;
64351;SDS011;50680;52.626;-8.668;2023-06-22T01:05:37;7.22;;;3.72;;
64351;SDS011;50680;52.626;-8.668;2023-06-22T01:08:21;6.57;;;3.97;;
64351;SDS011;50680;52.626;-8.668;2023-06-22T01:13:40;7.47;;;4.90;;
64351;SDS011;50680;52.626;-8.668;2023-06-22T01:16:16;8.23;;;4.90;;
64351;SDS011;50680;52.626;-8.668;2023-06-22T01:18:47;13.07;;;4.78;;
64351;SDS011;50680;52.626;-8.668;2023-06-22T01:21:17;8.30;;;4.32;;
64351;SDS011;50680;52.626;-8.668;2023-06-22T01:29:22;6.15;;;3.22;;
64351;SDS011;50680;52.626;-8.668;2023-06-22T01:31:50;4.30;;;2.60;;
64351;SDS011;50680;52.626;-8.668;2023-06-22T01:34:18;6.57;;;3.97;;
64351;SDS011;50680;52.626;-8.668;2023-06-22T01:36:46;63.42;;;5.50;;
64351;SDS011;50680;52.626;-8.668;2023-06-22T01:39:13;3.70;;;2.33;;
64351;SDS011;50680;52.626;-8.668;2023-06-22T01:41:41;14.32;;;1.42;;
64351;SDS011;50680;52.626;-8.668;2023-06-22T01:44:09;3.20;;;1.65;;
64351;SDS011;50680;52.626;-8.668;2023-06-22T01:46:37;9.50;;;4.20;;
64351;SDS011;50680;52.626;-8.668;2023-06-22T01:49:06;5.05;;;3.72;;
64351;SDS011;50680;52.626;-8.668;2023-06-22T01:51:33;10.55;;;5.00;;
64351;SDS011;50680;52.626;-8.668;2023-06-22T01:54:01;7.57;;;3.15;;
64351;SDS011;50680;52.626;-8.668;2023-06-22T01:56:28;4.40;;;2.55;;
64351;SDS011;50680;52.626;-8.668;2023-06-22T01:58:58;6.05;;;2.88;;
64351;SDS011;50680;52.626;-8.668;2023-06-22T02:02:06;4.82;;;2.85;;
64351;SDS011;50680;52.626;-8.668;2023-06-22T02:04:48;8.40;;;4.25;;
64351;SDS011;50680;52.626;-8.668;2023-06-22T02:07:22;8.93;;;4.38;;
64351;SDS011;50680;52.626;-8.668;2023-06-22T02:09:51;9.80;;;4.72;;
64351;SDS011;50680;52.626;-8.668;2023-06-22T02:12:22;10.43;;;4.60;;
64351;SDS011;50680;52.626;-8.668;2023-06-22T02:14:51;10.05;;;4.90;;
64351;SDS011;50680;52.626;-8.668;2023-06-22T02:17:19;6.65;;;3.40;;
64351;SDS011;50680;52.626;-8.668;2023-06-22T02:19:46;6.32;;;4.18;;
64351;SDS011;50680;52.626;-8.668;2023-06-22T02:22:13;17.08;;;5.72;;
64351;SDS011;50680;52.626;-8.668;2023-06-22T02:24:40;8.68;;;4.70;;
64351;SDS011;50680;52.626;-8.668;2023-06-22T02:27:07;22.08;;;5.05;;
64351;SDS011;50680;52.626;-8.668;2023-06-22T02:29:34;18.52;;;3.10;;
64351;SDS011;50680;52.626;-8.668;2023-06-22T02:32:01;4.45;;;2.45;;
64351;SDS011;50680;52.626;-8.668;2023-06-22T02:34:28;10.98;;;5.28;;
64351;SDS011;50680;52.626;-8.668;2023-06-22T02:36:55;9.98;;;4.70;;
64351;SDS011;50680;52.626;-8.668;2023-06-22T02:39:22;14.20;;;5.20;;
64351;SDS011;50680;52.626;-8.668;2023-06-22T02:41:50;8.80;;;3.90;;
64351;SDS011;50680;52.626;-8.668;2023-06-22T02:44:19;14.77;;;4.43;;
64351;SDS011;50680;52.626;-8.668;2023-06-22T02:46:47;9.75;;;3.72;;
64351;SDS011;50680;52.626;-8.668;2023-06-22T02:49:14;4.50;;;3.70;;
64351;SDS011;50680;52.626;-8.668;2023-06-22T02:51:46;8.73;;;5.43;;
64351;SDS011;50680;52.626;-8.668;2023-06-22T02:54:14;9.55;;;4.18;;
64351;SDS011;50680;52.626;-8.668;2023-06-22T02:56:41;11.70;;;3.50;;
64351;SDS011;50680;52.626;-8.668;2023-06-22T02:59:10;6.53;;;3.28;;
64351;SDS011;50680;52.626;-8.668;2023-06-22T03:01:37;7.95;;;4.03;;
64351;SDS011;50680;52.626;-8.668;2023-06-22T03:04:07;11.60;;;5.10;;
64351;SDS011;50680;52.626;-8.668;2023-06-22T03:06:34;9.13;;;4.20;;
64351;SDS011;50680;52.626;-8.668;2023-06-22T03:09:03;10.55;;;3.90;;
64351;SDS011;50680;52.626;-8.668;2023-06-22T03:11:31;10.63;;;4.07;;
64351;SDS011;50680;52.626;-8.668;2023-06-22T03:13:59;6.28;;;4.25;;
64351;SDS011;50680;52.626;-8.668;2023-06-22T03:16:27;11.10;;;4.32;;
64351;SDS011;50680;52.626;-8.668;2023-06-22T03:18:54;42.42;;;4.13;;
64351;SDS011;50680;52.626;-8.668;2023-06-22T03:21:26;18.10;;;2.20;;
64351;SDS011;50680;52.626;-8.668;2023-06-22T03:23:55;9.52;;;3.35;;
64351;SDS011;50680;52.626;-8.668;2023-06-22T03:26:22;12.45;;;4.93;;
64351;SDS011;50680;52.626;-8.668;2023-06-22T03:28:50;11.63;;;4.80;;
64351;SDS011;50680;52.626;-8.668;2023-06-22T03:31:16;7.95;;;4.28;;
64351;SDS011;50680;52.626;-8.668;2023-06-22T03:36:16;16.50;;;6.95;;
64351;SDS011;50680;52.626;-8.668;2023-06-22T03:38:47;18.10;;;7.55;;
64351;SDS011;50680;52.626;-8.668;2023-06-22T03:41:15;11.90;;;5.80;;
64351;SDS011;50680;52.626;-8.668;2023-06-22T03:43:42;7.20;;;4.72;;
64351;SDS011;50680;52.626;-8.668;2023-06-22T03:46:09;14.65;;;7.45;;
64351;SDS011;50680;52.626;-8.668;2023-06-22T03:48:36;14.80;;;6.72;;
64351;SDS011;50680;52.626;-8.668;2023-06-22T03:51:04;12.60;;;5.75;;
64351;SDS011;50680;52.626;-8.668;2023-06-22T03:53:31;13.15;;;8.10;;
64351;SDS011;50680;52.626;-8.668;2023-06-22T03:55:58;14.75;;;8.50;;
64351;SDS011;50680;52.626;-8.668;2023-06-22T03:58:24;14.57;;;8.27;;
64351;SDS011;50680;52.626;-8.668;2023-06-22T04:00:52;16.42;;;8.93;;
64351;SDS011;50680;52.626;-8.668;2023-06-22T04:03:19;19.70;;;9.93;;
64351;SDS011;50680;52.626;-8.668;2023-06-22T04:05:47;21.10;;;9.15;;
64351;SDS011;50680;52.626;-8.668;2023-06-22T04:08:15;15.88;;;8.80;;
64351;SDS011;50680;52.626;-8.668;2023-06-22T04:10:42;13.52;;;8.20;;
64351;SDS011;50680;52.626;-8.668;2023-06-22T04:13:09;15.43;;;8.10;;
64351;SDS011;50680;52.626;-8.668;2023-06-22T04:15:36;19.02;;;8.20;;
64351;SDS011;50680;52.626;-8.668;2023-06-22T04:18:03;15.82;;;7.60;;
64351;SDS011;50680;52.626;-8.668;2023-06-22T04:20:31;13.68;;;7.20;;
64351;SDS011;50680;52.626;-8.668;2023-06-22T04:22:58;13.73;;;7.50;;
64351;SDS011;50680;52.626;-8.668;2023-06-22T04:25:26;13.50;;;7.80;;
64351;SDS011;50680;52.626;-8.668;2023-06-22T04:27:52;13.85;;;7.53;;
64351;SDS011;50680;52.626;-8.668;2023-06-22T04:30:19;12.68;;;6.65;;
64351;SDS011;50680;52.626;-8.668;2023-06-22T04:32:46;14.88;;;6.28;;
64351;SDS011;50680;52.626;-8.668;2023-06-22T04:35:23;11.18;;;6.05;;
64351;SDS011;50680;52.626;-8.668;2023-06-22T04:37:51;11.75;;;6.40;;
64351;SDS011;50680;52.626;-8.668;2023-06-22T04:40:24;18.05;;;5.82;;
64351;SDS011;50680;52.626;-8.668;2023-06-22T04:42:51;12.15;;;6.03;;
64351;SDS011;50680;52.626;-8.668;2023-06-22T04:45:20;12.35;;;5.85;;
64351;SDS011;50680;52.626;-8.668;2023-06-22T04:47:47;10.68;;;5.57;;
64351;SDS011;50680;52.626;-8.668;2023-06-22T04:50:15;9.25;;;5.38;;
64351;SDS011;50680;52.626;-8.668;2023-06-22T04:52:41;13.02;;;5.35;;
64351;SDS011;50680;52.626;-8.668;2023-06-22T04:55:08;12.57;;;6.28;;
64351;SDS011;50680;52.626;-8.668;2023-06-22T04:57:35;16.67;;;8.95;;
64351;SDS011;50680;52.626;-8.668;2023-06-22T05:00:05;15.02;;;7.22;;
64351;SDS011;50680;52.626;-8.668;2023-06-22T05:02:38;13.95;;;6.03;;
64351;SDS011;50680;52.626;-8.668;2023-06-22T05:05:06;8.90;;;4.90;;
64351;SDS011;50680;52.626;-8.668;2023-06-22T05:07:34;11.40;;;5.60;;
64351;SDS011;50680;52.626;-8.668;2023-06-22T05:10:04;8.52;;;6.60;;
64351;SDS011;50680;52.626;-8.668;2023-06-22T05:12:31;14.15;;;7.07;;
64351;SDS011;50680;52.626;-8.668;2023-06-22T05:14:58;9.45;;;6.78;;
64351;SDS011;50680;52.626;-8.668;2023-06-22T05:17:25;8.02;;;6.32;;
64351;SDS011;50680;52.626;-8.668;2023-06-22T05:19:52;13.93;;;6.65;;
64351;SDS011;50680;52.626;-8.668;2023-06-22T05:22:20;8.18;;;5.05;;
64351;SDS011;50680;52.626;-8.668;2023-06-22T05:24:47;8.45;;;5.57;;
64351;SDS011;50680;52.626;-8.668;2023-06-22T05:27:14;10.50;;;5.88;;
64351;SDS011;50680;52.626;-8.668;2023-06-22T05:29:41;9.07;;;5.93;;
64351;SDS011;50680;52.626;-8.668;2023-06-22T05:32:09;14.73;;;6.25;;
64351;SDS011;50680;52.626;-8.668;2023-06-22T05:34:36;10.48;;;5.18;;
64351;SDS011;50680;52.626;-8.668;2023-06-22T05:37:03;7.78;;;4.05;;
64351;SDS011;50680;52.626;-8.668;2023-06-22T05:39:30;7.07;;;4.20;;
64351;SDS011;50680;52.626;-8.668;2023-06-22T05:41:57;10.85;;;3.70;;
64351;SDS011;50680;52.626;-8.668;2023-06-22T05:44:24;7.45;;;3.47;;
64351;SDS011;50680;52.626;-8.668;2023-06-22T05:46:51;9.45;;;3.72;;
64351;SDS011;50680;52.626;-8.668;2023-06-22T05:49:18;4.50;;;3.00;;
64351;SDS011;50680;52.626;-8.668;2023-06-22T05:51:45;5.07;;;3.13;;
64351;SDS011;50680;52.626;-8.668;2023-06-22T05:54:11;7.93;;;3.50;;
64351;SDS011;50680;52.626;-8.668;2023-06-22T05:56:40;6.57;;;3.00;;
64351;SDS011;50680;52.626;-8.668;2023-06-22T05:59:07;6.95;;;3.30;;
64351;SDS011;50680;52.626;-8.668;2023-06-22T06:01:33;3.75;;;2.83;;
64351;SDS011;50680;52.626;-8.668;2023-06-22T06:04:02;8.25;;;3.13;;
64351;SDS011;50680;52.626;-8.668;2023-06-22T06:06:36;5.22;;;2.72;;
64351;SDS011;50680;52.626;-8.668;2023-06-22T06:09:04;7.05;;;2.60;;
64351;SDS011;50680;52.626;-8.668;2023-06-22T06:11:31;8.50;;;3.20;;
64351;SDS011;50680;52.626;-8.668;2023-06-22T06:13:58;6.45;;;2.67;;
64351;SDS011;50680;52.626;-8.668;2023-06-22T06:16:25;5.18;;;2.20;;
64351;SDS011;50680;52.626;-8.668;2023-06-22T06:18:52;5.32;;;2.50;;
64351;SDS011;50680;52.626;-8.668;2023-06-22T06:21:21;11.80;;;2.80;;
64351;SDS011;50680;52.626;-8.668;2023-06-22T06:23:48;6.35;;;2.50;;
64351;SDS011;50680;52.626;-8.668;2023-06-22T06:26:15;3.53;;;2.20;;
64351;SDS011;50680;52.626;-8.668;2023-06-22T06:28:43;5.20;;;2.08;;
64351;SDS011;50680;52.626;-8.668;2023-06-22T06:31:10;4.07;;;2.20;;
64351;SDS011;50680;52.626;-8.668;2023-06-22T06:33:38;4.13;;;1.90;;
64351;SDS011;50680;52.626;-8.668;2023-06-22T06:36:05;4.78;;;2.42;;
64351;SDS011;50680;52.626;-8.668;2023-06-22T06:38:34;8.82;;;2.63;;
64351;SDS011;50680;52.626;-8.668;2023-06-22T06:41:01;5.35;;;2.33;;
64351;SDS011;50680;52.626;-8.668;2023-06-22T06:43:28;5.25;;;2.42;;
64351;SDS011;50680;52.626;-8.668;2023-06-22T06:45:55;5.80;;;2.20;;
64351;SDS011;50680;52.626;-8.668;2023-06-22T06:48:22;6.93;;;2.25;;
64351;SDS011;50680;52.626;-8.668;2023-06-22T06:50:49;3.78;;;2.00;;
64351;SDS011;50680;52.626;-8.668;2023-06-22T06:53:16;7.88;;;2.63;;
64351;SDS011;50680;52.626;-8.668;2023-06-22T06:55:43;6.15;;;2.13;;
64351;SDS011;50680;52.626;-8.668;2023-06-22T06:58:12;4.43;;;2.10;;
64351;SDS011;50680;52.626;-8.668;2023-06-22T07:00:39;3.58;;;1.88;;
64351;SDS011;50680;52.626;-8.668;2023-06-22T07:03:06;5.22;;;2.47;;
64351;SDS011;50680;52.626;-8.668;2023-06-22T07:05:33;5.70;;;2.67;;
64351;SDS011;50680;52.626;-8.668;2023-06-22T07:08:00;7.72;;;2.80;;
64351;SDS011;50680;52.626;-8.668;2023-06-22T07:10:28;4.93;;;2.42;;
64351;SDS011;50680;52.626;-8.668;2023-06-22T07:12:56;4.75;;;2.35;;
64351;SDS011;50680;52.626;-8.668;2023-06-22T07:15:23;4.55;;;2.03;;
64351;SDS011;50680;52.626;-8.668;2023-06-22T07:17:50;7.60;;;2.10;;
64351;SDS011;50680;52.626;-8.668;2023-06-22T07:20:17;6.95;;;2.05;;
64351;SDS011;50680;52.626;-8.668;2023-06-22T07:22:45;7.82;;;2.10;;
64351;SDS011;50680;52.626;-8.668;2023-06-22T07:25:12;3.92;;;2.20;;
64351;SDS011;50680;52.626;-8.668;2023-06-22T07:27:46;11.27;;;2.20;;
64351;SDS011;50680;52.626;-8.668;2023-06-22T07:30:22;4.22;;;1.77;;
64351;SDS011;50680;52.626;-8.668;2023-06-22T07:32:49;4.57;;;2.08;;
64351;SDS011;50680;52.626;-8.668;2023-06-22T07:35:16;3.58;;;1.85;;
64351;SDS011;50680;52.626;-8.668;2023-06-22T07:37:43;5.43;;;1.90;;
64351;SDS011;50680;52.626;-8.668;2023-06-22T07:40:11;4.78;;;2.38;;
64351;SDS011;50680;52.626;-8.668;2023-06-22T07:42:38;7.05;;;2.45;;
64351;SDS011;50680;52.626;-8.668;2023-06-22T07:45:06;7.15;;;2.33;;
64351;SDS011;50680;52.626;-8.668;2023-06-22T07:47:34;4.00;;;2.05;;
64351;SDS011;50680;52.626;-8.668;2023-06-22T07:50:02;6.38;;;1.95;;
64351;SDS011;50680;52.626;-8.668;2023-06-22T07:52:30;4.15;;;1.90;;
64351;SDS011;50680;52.626;-8.668;2023-06-22T07:54:57;3.58;;;1.88;;
64351;SDS011;50680;52.626;-8.668;2023-06-22T07:57:24;8.00;;;2.03;;
64351;SDS011;50680;52.626;-8.668;2023-06-22T07:59:59;3.63;;;2.10;;
64351;SDS011;50680;52.626;-8.668;2023-06-22T08:02:27;5.85;;;1.70;;
64351;SDS011;50680;52.626;-8.668;2023-06-22T08:04:54;7.75;;;2.20;;
64351;SDS011;50680;52.626;-8.668;2023-06-22T08:07:41;4.95;;;1.95;;
64351;SDS011;50680;52.626;-8.668;2023-06-22T08:10:12;3.75;;;2.13;;
64351;SDS011;50680;52.626;-8.668;2023-06-22T08:12:40;5.78;;;2.13;;
64351;SDS011;50680;52.626;-8.668;2023-06-22T08:15:06;6.10;;;2.10;;
64351;SDS011;50680;52.626;-8.668;2023-06-22T08:17:34;6.50;;;1.90;;
64351;SDS011;50680;52.626;-8.668;2023-06-22T08:20:01;2.97;;;1.70;;
64351;SDS011;50680;52.626;-8.668;2023-06-22T08:22:31;5.13;;;1.67;;
64351;SDS011;50680;52.626;-8.668;2023-06-22T08:24:59;3.03;;;1.80;;
64351;SDS011;50680;52.626;-8.668;2023-06-22T08:27:26;8.77;;;2.60;;
64351;SDS011;50680;52.626;-8.668;2023-06-22T08:29:54;4.97;;;1.70;;
64351;SDS011;50680;52.626;-8.668;2023-06-22T08:32:25;3.88;;;1.90;;
64351;SDS011;50680;52.626;-8.668;2023-06-22T08:34:54;8.43;;;1.55;;
64351;SDS011;50680;52.626;-8.668;2023-06-22T08:37:22;3.28;;;2.25;;
64351;SDS011;50680;52.626;-8.668;2023-06-22T08:39:58;5.25;;;2.25;;
64351;SDS011;50680;52.626;-8.668;2023-06-22T08:42:26;3.60;;;2.10;;
64351;SDS011;50680;52.626;-8.668;2023-06-22T08:44:53;6.10;;;2.05;;
64351;SDS011;50680;52.626;-8.668;2023-06-22T08:47:20;4.57;;;1.58;;
64351;SDS011;50680;52.626;-8.668;2023-06-22T08:49:48;4.97;;;1.70;;
64351;SDS011;50680;52.626;-8.668;2023-06-22T08:52:15;7.65;;;1.70;;
64351;SDS011;50680;52.626;-8.668;2023-06-22T08:54:44;7.00;;;1.80;;
64351;SDS011;50680;52.626;-8.668;2023-06-22T08:57:12;2.08;;;1.52;;
64351;SDS011;50680;52.626;-8.668;2023-06-22T08:59:38;6.93;;;2.08;;
64351;SDS011;50680;52.626;-8.668;2023-06-22T09:02:06;3.92;;;1.60;;
64351;SDS011;50680;52.626;-8.668;2023-06-22T09:04:33;3.78;;;1.50;;
64351;SDS011;50680;52.626;-8.668;2023-06-22T09:07:03;2.75;;;1.63;;
64351;SDS011;50680;52.626;-8.668;2023-06-22T09:09:30;3.95;;;1.50;;
64351;SDS011;50680;52.626;-8.668;2023-06-22T09:11:57;4.32;;;2.20;;
64351;SDS011;50680;52.626;-8.668;2023-06-22T09:14:24;3.83;;;1.60;;
64351;SDS011;50680;52.626;-8.668;2023-06-22T09:16:51;2.85;;;1.70;;
64351;SDS011;50680;52.626;-8.668;2023-06-22T09:19:18;7.30;;;2.22;;
64351;SDS011;50680;52.626;-8.668;2023-06-22T09:21:44;5.80;;;2.25;;
64351;SDS011;50680;52.626;-8.668;2023-06-22T09:24:11;2.92;;;1.50;;
64351;SDS011;50680;52.626;-8.668;2023-06-22T09:26:38;7.32;;;1.75;;
64351;SDS011;50680;52.626;-8.668;2023-06-22T09:29:05;3.72;;;1.80;;
64351;SDS011;50680;52.626;-8.668;2023-06-22T09:31:32;5.75;;;1.92;;
64351;SDS011;50680;52.626;-8.668;2023-06-22T09:33:59;2.65;;;2.45;;
64351;SDS011;50680;52.626;-8.668;2023-06-22T09:36:26;5.53;;;1.80;;
64351;SDS011;50680;52.626;-8.668;2023-06-22T09:38:53;2.92;;;1.60;;
64351;SDS011;50680;52.626;-8.668;2023-06-22T09:41:25;2.42;;;2.00;;
64351;SDS011;50680;52.626;-8.668;2023-06-22T09:43:52;3.72;;;1.65;;
64351;SDS011;50680;52.626;-8.668;2023-06-22T09:46:22;3.08;;;1.75;;
64351;SDS011;50680;52.626;-8.668;2023-06-22T09:48:51;4.35;;;2.10;;
64351;SDS011;50680;52.626;-8.668;2023-06-22T09:51:19;2.95;;;1.90;;
64351;SDS011;50680;52.626;-8.668;2023-06-22T09:53:50;3.50;;;1.83;;
64351;SDS011;50680;52.626;-8.668;2023-06-22T09:56:17;3.00;;;1.92;;
64351;SDS011;50680;52.626;-8.668;2023-06-22T09:58:45;4.75;;;2.03;;
64351;SDS011;50680;52.626;-8.668;2023-06-22T10:01:13;8.50;;;2.00;;
64351;SDS011;50680;52.626;-8.668;2023-06-22T10:03:42;3.72;;;2.05;;
64351;SDS011;50680;52.626;-8.668;2023-06-22T10:06:10;4.35;;;1.90;;
64351;SDS011;50680;52.626;-8.668;2023-06-22T10:08:37;3.17;;;1.92;;
64351;SDS011;50680;52.626;-8.668;2023-06-22T10:11:04;4.40;;;1.88;;
64351;SDS011;50680;52.626;-8.668;2023-06-22T10:13:31;4.20;;;2.05;;
64351;SDS011;50680;52.626;-8.668;2023-06-22T10:15:58;2.88;;;1.92;;
64351;SDS011;50680;52.626;-8.668;2023-06-22T10:18:25;3.97;;;1.98;;
64351;SDS011;50680;52.626;-8.668;2023-06-22T10:20:52;5.38;;;1.90;;
64351;SDS011;50680;52.626;-8.668;2023-06-22T10:23:19;4.22;;;1.77;;
64351;SDS011;50680;52.626;-8.668;2023-06-22T10:25:46;5.00;;;2.22;;
64351;SDS011;50680;52.626;-8.668;2023-06-22T10:28:13;2.55;;;1.98;;
64351;SDS011;50680;52.626;-8.668;2023-06-22T10:30:41;2.83;;;1.77;;
64351;SDS011;50680;52.626;-8.668;2023-06-22T10:33:11;4.07;;;1.83;;
64351;SDS011;50680;52.626;-8.668;2023-06-22T10:35:39;3.60;;;1.80;;
64351;SDS011;50680;52.626;-8.668;2023-06-22T10:38:06;5.30;;;2.05;;
64351;SDS011;50680;52.626;-8.668;2023-06-22T10:40:33;3.47;;;2.13;;
64351;SDS011;50680;52.626;-8.668;2023-06-22T10:43:00;3.72;;;1.88;;
64351;SDS011;50680;52.626;-8.668;2023-06-22T10:45:27;2.10;;;1.70;;
64351;SDS011;50680;52.626;-8.668;2023-06-22T10:47:55;2.17;;;1.70;;
64351;SDS011;50680;52.626;-8.668;2023-06-22T10:50:22;4.22;;;1.40;;
64351;SDS011;50680;52.626;-8.668;2023-06-22T10:52:51;1.52;;;1.30;;
64351;SDS011;50680;52.626;-8.668;2023-06-22T10:55:18;1.80;;;1.40;;
64351;SDS011;50680;52.626;-8.668;2023-06-22T10:57:45;3.67;;;1.67;;
64351;SDS011;50680;52.626;-8.668;2023-06-22T11:00:14;1.88;;;1.45;;
64351;SDS011;50680;52.626;-8.668;2023-06-22T11:02:42;4.65;;;1.92;;
64351;SDS011;50680;52.626;-8.668;2023-06-22T11:05:10;4.72;;;1.50;;
64351;SDS011;50680;52.626;-8.668;2023-06-22T11:07:37;2.17;;;1.48;;
64351;SDS011;50680;52.626;-8.668;2023-06-22T11:10:11;7.28;;;1.60;;
64351;SDS011;50680;52.626;-8.668;2023-06-22T11:12:39;1.70;;;1.40;;
64351;SDS011;50680;52.626;-8.668;2023-06-22T11:15:06;2.95;;;1.52;;
64351;SDS011;50680;52.626;-8.668;2023-06-22T11:17:33;4.13;;;1.67;;
64351;SDS011;50680;52.626;-8.668;2023-06-22T11:20:01;4.10;;;1.90;;
64351;SDS011;50680;52.626;-8.668;2023-06-22T11:22:31;6.97;;;1.70;;
64351;SDS011;50680;52.626;-8.668;2023-06-22T11:25:00;4.13;;;1.77;;
64351;SDS011;50680;52.626;-8.668;2023-06-22T11:27:27;4.90;;;1.85;;
64351;SDS011;50680;52.626;-8.668;2023-06-22T11:29:54;4.20;;;1.58;;
64351;SDS011;50680;52.626;-8.668;2023-06-22T11:32:21;2.78;;;1.50;;
64351;SDS011;50680;52.626;-8.668;2023-06-22T11:34:48;2.70;;;1.88;;
64351;SDS011;50680;52.626;-8.668;2023-06-22T11:37:15;2.53;;;1.90;;
64351;SDS011;50680;52.626;-8.668;2023-06-22T11:39:42;2.97;;;1.65;;
64351;SDS011;50680;52.626;-8.668;2023-06-22T11:42:24;2.03;;;1.60;;
64351;SDS011;50680;52.626;-8.668;2023-06-22T11:44:51;7.00;;;1.75;;
64351;SDS011;50680;52.626;-8.668;2023-06-22T11:47:18;2.70;;;1.50;;
64351;SDS011;50680;52.626;-8.668;2023-06-22T11:49:45;2.55;;;1.63;;
64351;SDS011;50680;52.626;-8.668;2023-06-22T11:52:13;2.38;;;1.90;;
64351;SDS011;50680;52.626;-8.668;2023-06-22T11:54:39;2.33;;;1.60;;
64351;SDS011;50680;52.626;-8.668;2023-06-22T11:57:06;2.80;;;1.73;;
64351;SDS011;50680;52.626;-8.668;2023-06-22T11:59:33;2.35;;;1.90;;
64351;SDS011;50680;52.626;-8.668;2023-06-22T12:02:00;6.82;;;1.92;;
64351;SDS011;50680;52.626;-8.668;2023-06-22T12:04:27;4.32;;;1.90;;
64351;SDS011;50680;52.626;-8.668;2023-06-22T12:06:54;5.13;;;1.80;;
64351;SDS011;50680;52.626;-8.668;2023-06-22T12:09:21;2.58;;;2.00;;
64351;SDS011;50680;52.626;-8.668;2023-06-22T12:11:47;2.25;;;1.67;;
64351;SDS011;50680;52.626;-8.668;2023-06-22T12:14:14;2.85;;;1.75;;
64351;SDS011;50680;52.626;-8.668;2023-06-22T12:16:41;3.67;;;1.70;;
64351;SDS011;50680;52.626;-8.668;2023-06-22T12:19:10;2.75;;;1.90;;
64351;SDS011;50680;52.626;-8.668;2023-06-22T12:21:37;3.72;;;2.13;;
64351;SDS011;50680;52.626;-8.668;2023-06-22T12:24:07;2.22;;;1.75;;
64351;SDS011;50680;52.626;-8.668;2023-06-22T12:26:34;3.85;;;2.17;;
64351;SDS011;50680;52.626;-8.668;2023-06-22T12:29:00;6.68;;;2.40;;
64351;SDS011;50680;52.626;-8.668;2023-06-22T12:31:27;4.32;;;2.10;;
64351;SDS011;50680;52.626;-8.668;2023-06-22T12:33:54;2.15;;;1.65;;
64351;SDS011;50680;52.626;-8.668;2023-06-22T12:36:21;4.43;;;2.00;;
64351;SDS011;50680;52.626;-8.668;2023-06-22T12:38:48;4.97;;;1.85;;
64351;SDS011;50680;52.626;-8.668;2023-06-22T12:41:15;2.60;;;1.63;;
64351;SDS011;50680;52.626;-8.668;2023-06-22T12:43:42;3.05;;;1.77;;
64351;SDS011;50680;52.626;-8.668;2023-06-22T12:46:09;2.70;;;1.95;;
64351;SDS011;50680;52.626;-8.668;2023-06-22T12:48:36;4.53;;;1.45;;
64351;SDS011;50680;52.626;-8.668;2023-06-22T12:51:08;2.13;;;1.52;;
64351;SDS011;50680;52.626;-8.668;2023-06-22T12:53:36;3.60;;;1.77;;
64351;SDS011;50680;52.626;-8.668;2023-06-22T12:56:03;3.10;;;1.65;;
64351;SDS011;50680;52.626;-8.668;2023-06-22T12:58:30;2.65;;;1.60;;
64351;SDS011;50680;52.626;-8.668;2023-06-22T13:00:57;5.13;;;1.40;;
64351;SDS011;50680;52.626;-8.668;2023-06-22T13:03:24;2.55;;;1.60;;
64351;SDS011;50680;52.626;-8.668;2023-06-22T13:05:52;2.40;;;1.60;;
64351;SDS011;50680;52.626;-8.668;2023-06-22T13:08:19;1.92;;;1.58;;
64351;SDS011;50680;52.626;-8.668;2023-06-22T13:10:46;2.20;;;1.58;;
64351;SDS011;50680;52.626;-8.668;2023-06-22T13:13:13;5.13;;;1.95;;
64351;SDS011;50680;52.626;-8.668;2023-06-22T13:15:40;1.92;;;1.60;;
64351;SDS011;50680;52.626;-8.668;2023-06-22T13:18:07;4.57;;;1.77;;
64351;SDS011;50680;52.626;-8.668;2023-06-22T13:20:34;4.15;;;1.77;;
64351;SDS011;50680;52.626;-8.668;2023-06-22T13:23:01;2.47;;;1.90;;
64351;SDS011;50680;52.626;-8.668;2023-06-22T13:25:28;4.93;;;2.10;;
64351;SDS011;50680;52.626;-8.668;2023-06-22T13:27:55;2.85;;;2.20;;
64351;SDS011;50680;52.626;-8.668;2023-06-22T13:30:22;4.03;;;2.58;;
64351;SDS011;50680;52.626;-8.668;2023-06-22T13:32:48;5.80;;;2.60;;
64351;SDS011;50680;52.626;-8.668;2023-06-22T13:35:15;6.00;;;2.40;;
64351;SDS011;50680;52.626;-8.668;2023-06-22T13:37:42;5.07;;;2.85;;
64351;SDS011;50680;52.626;-8.668;2023-06-22T13:40:09;4.03;;;2.70;;
64351;SDS011;50680;52.626;-8.668;2023-06-22T13:42:36;6.63;;;2.70;;
64351;SDS011;50680;52.626;-8.668;2023-06-22T13:45:04;7.15;;;2.90;;
64351;SDS011;50680;52.626;-8.668;2023-06-22T13:47:31;3.53;;;3.20;;
64351;SDS011;50680;52.626;-8.668;2023-06-22T13:49:58;6.53;;;2.92;;
64351;SDS011;50680;52.626;-8.668;2023-06-22T13:52:25;8.60;;;2.83;;
64351;SDS011;50680;52.626;-8.668;2023-06-22T13:54:52;3.25;;;2.72;;
64351;SDS011;50680;52.626;-8.668;2023-06-22T13:57:19;6.00;;;2.83;;
64351;SDS011;50680;52.626;-8.668;2023-06-22T13:59:46;6.45;;;2.63;;
64351;SDS011;50680;52.626;-8.668;2023-06-22T14:02:13;2.83;;;2.28;;
64351;SDS011;50680;52.626;-8.668;2023-06-22T14:04:40;4.18;;;2.63;;
64351;SDS011;50680;52.626;-8.668;2023-06-22T14:07:07;2.90;;;2.45;;
64351;SDS011;50680;52.626;-8.668;2023-06-22T14:09:34;4.13;;;2.38;;
64351;SDS011;50680;52.626;-8.668;2023-06-22T14:12:04;5.28;;;2.67;;
64351;SDS011;50680;52.626;-8.668;2023-06-22T14:14:35;3.38;;;2.92;;
64351;SDS011;50680;52.626;-8.668;2023-06-22T14:17:01;3.30;;;2.65;;
64351;SDS011;50680;52.626;-8.668;2023-06-22T14:19:29;4.32;;;2.80;;
64351;SDS011;50680;52.626;-8.668;2023-06-22T14:21:56;3.72;;;2.53;;
64351;SDS011;50680;52.626;-8.668;2023-06-22T14:24:25;7.53;;;2.53;;
64351;SDS011;50680;52.626;-8.668;2023-06-22T14:26:55;6.57;;;2.67;;
64351;SDS011;50680;52.626;-8.668;2023-06-22T14:29:22;4.40;;;2.78;;
64351;SDS011;50680;52.626;-8.668;2023-06-22T14:31:49;4.68;;;2.60;;
64351;SDS011;50680;52.626;-8.668;2023-06-22T14:34:16;4.50;;;2.50;;
64351;SDS011;50680;52.626;-8.668;2023-06-22T14:36:43;5.13;;;2.33;;
64351;SDS011;50680;52.626;-8.668;2023-06-22T14:39:10;5.72;;;2.65;;
64351;SDS011;50680;52.626;-8.668;2023-06-22T14:41:36;8.07;;;2.35;;
64351;SDS011;50680;52.626;-8.668;2023-06-22T14:44:03;5.72;;;1.98;;
64351;SDS011;50680;52.626;-8.668;2023-06-22T14:46:30;2.28;;;1.92;;